Latest Coastal Weather Observations for Larapuna (Eddystone Point)

IDT60701

Issued at 11:21 am EST Saturday 23 May 2015 (issued every 10 minutes, with the page automatically refreshed every 10 minutes)

About coastal observations | Map of coastal stations | Coastal observations for TAS | Marine services | Other Formats
Station Details ID: 092045 Name: LARAPUNA (EDDYSTONE POINT) Lat: -40.99 Lon: 148.35 Height: 19.7 m
Data from the previous 72 hours. | See also: Recent months at Larapuna (Eddystone Point)
Date/Time
EST
Temp

°C
Wind Pressure Rain
since 9am
mm
Weather Cloud Vis
km
Sea
Height
m
Swell
Dir
 
Speed
knots
Gust
knots
hPa Trend Height
m
Period
s
Dir
23/11:00am 13.1 ESE 2 4 1028.9 - 0.0 - - - - - - -
23/10:30am 12.8 SSW 3 3 1029.1 - 0.0 - - - - - - -
23/10:00am 11.6 SW 2 4 1028.8 - 0.0 - - - - - - -
23/09:30am 11.2 W 1 4 1029.0 - 0.0 - - - - - - -
23/09:00am 9.9 WSW 3 4 1028.9 - 0.0 - - - - - - -
23/08:30am 8.9 SW 5 5 1028.7 - 0.0 - - - - - - -
23/08:00am 7.7 SW 5 6 1028.8 - 0.0 - - - - - - -
23/07:30am 7.1 SSW 5 6 1028.4 - 0.0 - - - - - - -
23/07:00am 7.2 SSW 5 6 1028.3 - 0.0 - - - - - - -
23/06:30am 7.2 SSW 5 6 1027.8 - 0.0 - - - - - - -
23/06:00am 7.3 SW 5 6 1027.5 - 0.0 - - - - - - -
23/05:30am 7.2 SW 5 6 1027.4 - 0.0 - - - - - - -
23/05:00am 7.1 SW 6 7 1027.3 - 0.0 - - - - - - -
23/04:30am 6.6 SW 6 7 1027.2 - 0.0 - - - - - - -
23/04:00am 6.8 SSW 6 6 1027.0 - 0.0 - - - - - - -
23/03:30am 6.5 SW 6 7 1027.1 - 0.0 - - - - - - -
23/03:00am 7.0 SSW 5 7 1027.2 - 0.0 - - - - - - -
23/02:30am 7.5 SW 6 7 1027.4 - 0.0 - - - - - - -
23/02:00am 7.1 SW 6 7 1027.6 - 0.0 - - - - - - -
23/01:30am 7.2 SW 6 7 1027.7 - 0.0 - - - - - - -
23/01:00am 6.8 SW 5 6 1027.6 - 0.0 - - - - - - -
23/12:30am 7.5 SSW 5 6 1027.6 - 0.0 - - - - - - -
23/12:00am 7.8 SSW 6 7 1027.8 - 0.0 - - - - - - -
 
Date/Time
EST
Temp

°C
Wind Pressure Rain
since 9am
mm
Weather Cloud Vis
km
Sea
Height
m
Swell
Dir
 
Speed
knots
Gust
knots
hPa Trend Height
m
Period
s
Dir
22/11:30pm 7.9 SW 4 6 1027.7 - 0.0 - - - - - - -
22/11:00pm 7.5 SW 6 7 1027.6 - 0.0 - - - - - - -
22/10:30pm 6.3 WNW 6 7 1027.7 - 0.0 - - - - - - -
22/10:00pm 7.3 WNW 9 11 1027.8 - 0.0 - - - - - - -
22/09:30pm 7.0 WNW 10 11 1027.6 - 0.0 - - - - - - -
22/09:00pm 7.6 WNW 10 11 1027.5 - 0.0 - - - - - - -
22/08:30pm 8.0 WNW 11 13 1027.6 - 0.0 - - - - - - -
22/08:00pm 8.0 NW 9 12 1027.4 - 0.0 - - - - - - -
22/07:30pm 7.2 WNW 9 11 1027.3 - 0.0 - - - - - - -
22/07:00pm 7.4 NW 9 10 1027.3 - 0.0 - - - - - - -
22/06:30pm 8.3 WNW 7 8 1027.2 - 0.0 - - - - - - -
22/06:00pm 8.9 NW 7 9 1027.3 - 0.0 - - - - - - -
22/05:30pm 9.7 NW 6 9 1027.2 - 0.0 - - - - - - -
22/05:00pm 10.2 N 7 9 1026.8 - 0.0 - - - - - - -
22/04:30pm 10.6 N 7 9 1026.7 - 0.0 - - - - - - -
22/04:00pm 11.0 NNE 6 9 1026.8 - 0.0 - - - - - - -
22/03:30pm 11.5 N 6 8 1026.8 - 0.0 - - - - - - -
22/03:00pm 11.9 N 6 9 1026.5 - 0.0 - - - - - - -
22/02:30pm 12.2 NE 3 5 1026.6 - 0.0 - - - - - - -
22/02:00pm 12.9 ENE 5 7 1026.7 - 0.0 - - - - - - -
22/01:30pm 12.1 ESE 5 7 1026.8 - 0.0 - - - - - - -
22/01:00pm 12.1 SE 7 9 1027.2 - 0.0 - - - - - - -
22/12:30pm 12.1 SSE 8 11 1027.4 - 0.0 - - - - - - -
22/12:00pm 12.1 SSE 8 11 1027.6 - 0.0 - - - - - - -
22/11:30am 12.3 S 9 11 1028.0 - 0.0 - - - - - - -
22/11:00am 12.1 S 11 13 1028.4 - 0.0 - - - - - - -
22/10:30am 11.5 S 12 15 1028.6 - 0.0 - - - - - - -
22/10:00am 11.1 S 13 16 1028.5 - 0.0 - - - - - - -
22/09:30am 10.5 S 13 15 1028.5 - 0.0 - - - - - - -
22/09:00am 10.2 S 12 15 1028.3 - 0.0 - - - - - - -
22/08:30am 9.3 SSW 10 12 1028.4 - 0.0 - - - - - - -
22/08:00am 8.0 SSW 11 13 1028.2 - 0.0 - - - - - - -
22/07:30am 7.5 SW 12 13 1027.9 - 0.0 - - - - - - -
22/07:00am 7.7 SSW 13 15 1027.6 - 0.0 - - - - - - -
22/06:30am 7.6 SSW 12 15 1027.3 - 0.0 - - - - - - -
22/06:00am 7.6 SW 13 14 1027.1 - 0.0 - - - - - - -
22/05:30am 7.7 SW 12 14 1027.1 - 0.0 - - - - - - -
22/05:00am 8.2 SSW 12 15 1027.0 - 0.0 - - - - - - -
22/04:30am 8.7 SW 13 15 1026.9 - 0.0 - - - - - - -
22/04:00am 9.6 S 17 18 1026.7 - 0.0 - - - - - - -
22/03:30am 10.1 SSW 19 22 1026.9 - 0.0 - - - - - - -
22/03:00am 10.3 SSW 18 21 1027.1 - 0.0 - - - - - - -
22/02:30am 10.0 SSW 15 19 1027.2 - 0.0 - - - - - - -
22/02:00am 9.4 SW 15 17 1027.3 - 0.0 - - - - - - -
22/01:30am 10.0 SSW 17 20 1027.2 - 0.0 - - - - - - -
22/01:00am 10.0 SW 15 19 1027.2 - 0.0 - - - - - - -
22/12:30am 9.6 SW 12 14 1027.4 - 0.0 - - - - - - -
22/12:00am 9.7 SW 12 14 1027.5 - 0.0 - - - - - - -
 
Date/Time
EST
Temp

°C
Wind Pressure Rain
since 9am
mm
Weather Cloud Vis
km
Sea
Height
m
Swell
Dir
 
Speed
knots
Gust
knots
hPa Trend Height
m
Period
s
Dir
21/11:30pm 10.0 SW 13 16 1027.6 - 0.0 - - - - - - -
21/11:00pm 10.2 SSW 15 17 1027.6 - 0.0 - - - - - - -
21/10:30pm 10.2 SSW 15 18 1027.6 - 0.0 - - - - - - -
21/10:00pm 10.3 SW 14 18 1027.5 - 0.0 - - - - - - -
21/09:30pm 10.5 SW 16 18 1027.4 - 0.0 - - - - - - -
21/09:00pm 10.5 SSW 15 18 1027.3 - 0.0 - - - - - - -
21/08:30pm 10.7 SSW 15 19 1027.0 - 0.0 - - - - - - -
21/08:00pm 10.8 SSW 15 20 1027.0 - 0.0 - - - - - - -
21/07:30pm 11.2 SSW 17 22 1026.9 - 0.0 - - - - - - -
21/07:00pm 11.0 SSW 18 21 1026.6 - 0.0 - - - - - - -
21/06:30pm 11.0 SSW 19 22 1026.3 - 0.0 - - - - - - -
21/06:00pm 11.1 S 19 24 1026.1 - 0.0 - - - - - - -
21/05:30pm 11.3 S 21 26 1025.6 - 0.0 - - - - - - -
21/05:00pm 11.4 S 24 29 1025.2 - 0.0 - - - - - - -
21/04:30pm 11.8 S 22 25 1024.9 - 0.0 - - - - - - -
21/04:00pm 12.0 S 23 28 1024.7 - 0.0 - - - - - - -
21/03:30pm 12.3 S 24 29 1024.3 - 0.0 - - - - - - -
21/03:00pm 12.7 S 23 27 1024.1 - 0.0 - - - - - - -
21/02:30pm 13.0 S 24 29 1023.9 - 0.0 - - - - - - -
21/02:00pm 13.2 S 25 29 1023.6 - 0.0 - - - - - - -
21/01:30pm 13.4 S 23 27 1023.6 - 0.0 - - - - - - -
21/01:00pm 13.5 S 25 29 1023.5 - 0.0 - - - - - - -
21/12:30pm 13.3 S 26 31 1023.5 - 0.0 - - - - - - -
21/12:00pm 13.1 S 25 31 1023.6 - 0.0 - - - - - - -
21/11:30am 13.1 S 27 32 1023.6 - 0.0 - - - - - - -
21/11:00am 12.9 S 21 26 1024.0 - 0.0 - - - - - - -
21/10:30am 12.4 S 22 26 1024.0 - 0.0 - - - - - - -
21/10:00am 11.3 S 25 31 1023.8 - 0.0 - - - - - - -
21/09:30am 11.3 S 22 27 1023.3 - 0.0 - - - - - - -
21/09:00am 11.2 S 19 24 1022.9 - 9.6 - - - - - - -
21/08:30am 11.3 S 18 22 1022.5 - 9.6 - - - - - - -
21/08:00am 11.1 SSE 19 22 1022.0 - 9.6 - - - - - - -
21/07:30am 10.6 S 18 21 1021.5 - 9.6 - - - - - - -
21/07:00am 10.5 S 20 24 1020.9 - 9.6 - - - - - - -
21/06:30am 10.6 S 23 25 1020.5 - 9.6 - - - - - - -
21/06:00am 10.8 S 25 30 1019.9 - 9.6 - - - - - - -
21/05:30am 11.0 S 21 25 1019.5 - 9.6 - - - - - - -
21/05:00am 11.0 SSE 21 24 1019.2 - 9.6 - - - - - - -
21/04:30am 11.2 SSE 19 23 1018.7 - 9.6 - - - - - - -
21/04:00am 11.4 SSE 20 22 1018.4 - 9.6 - - - - - - -
21/03:30am 11.4 S 21 24 1018.2 - 9.6 - - - - - - -
21/03:00am 11.7 S 20 24 1017.9 - 9.6 - - - - - - -
21/02:30am 11.6 SSE 17 20 1017.6 - 9.6 - - - - - - -
21/02:00am 11.4 S 18 21 1017.3 - 9.6 - - - - - - -
21/01:30am 11.3 S 18 22 1016.9 - 9.6 - - - - - - -
21/01:00am 11.4 S 18 23 1016.8 - 9.6 - - - - - - -
21/12:30am 11.3 SSE 15 19 1016.7 - 9.6 - - - - - - -
21/12:00am 11.2 S 16 18 1016.7 - 9.4 - - - - - - -
 
Date/Time
EST
Temp

°C
Wind Pressure Rain
since 9am
mm
Weather Cloud Vis
km
Sea
Height
m
Swell
Dir
 
Speed
knots
Gust
knots
hPa Trend Height
m
Period
s
Dir
20/11:30pm 11.2 S 18 22 1016.7 - 9.4 - - - - - - -
20/11:00pm 11.4 S 21 24 1016.5 - 9.4 - - - - - - -
20/10:30pm 11.8 S 19 23 1016.2 - 9.4 - - - - - - -
20/10:00pm 12.0 S 19 23 1015.9 - 9.4 - - - - - - -
20/09:30pm 11.9 S 16 19 1015.7 - 9.4 - - - - - - -
20/09:00pm 11.8 S 15 18 1015.2 - 9.4 - - - - - - -
20/08:30pm 11.7 SSE 15 17 1014.8 - 9.4 - - - - - - -
20/08:00pm 11.6 S 17 20 1014.6 - 9.4 - - - - - - -
20/07:30pm 11.6 S 18 21 1014.3 - 9.2 - - - - - - -
20/07:00pm 11.7 S 21 24 1014.0 - 9.0 - - - - - - -
20/06:30pm 12.0 S 21 24 1013.6 - 9.0 - - - - - - -
20/06:00pm 12.0 S 22 24 1013.2 - 9.0 Recent precip. - - - - - -
20/05:30pm 12.1 S 21 25 1012.8 - 9.0 - - - - - - -
20/05:00pm 12.2 S 19 22 1012.4 - 8.6 - - - - - - -
20/04:30pm 12.3 S 19 23 1012.0 - 7.6 - - - - - - -
20/04:00pm 12.3 SSE 18 21 1011.6 - 7.4 - - - - - - -
20/03:30pm 12.3 S 17 19 1011.4 - 7.4 - - - - - - -
20/03:00pm 12.5 SSE 17 19 1011.0 - 7.0 Rain - - - - - -
20/02:30pm 12.6 SSE 17 20 1010.6 - 6.6 - - - - - - -
20/02:00pm 12.5 SSE 17 21 1010.3 - 5.8 - - - - - - -
20/01:30pm 12.5 SSE 16 19 1010.2 - 5.0 - - - - - - -
20/01:00pm 12.8 S 14 19 1010.3 - 4.0 - - - - - - -
20/12:30pm 13.0 SSE 13 14 1010.3 - 3.8 - - - - - - -
20/12:00pm 13.3 S 8 11 1010.3 - 3.4 Recent precip. - - - - - -
20/11:30am 13.1 S 8 10 1010.4 - 3.2 - - - - - - -

Other Formats:

Comma delimited format used in spreadsheet applications
http://www.bom.gov.au/fwo/IDT60701/IDT60701.94983.axf

JavaScript Object Notation format (JSON) in row-major order
http://www.bom.gov.au/fwo/IDT60701/IDT60701.94983.json